sensor_id;sensor_type;location;lat;lon;timestamp;pressure;altitude;pressure_sealevel;temperature;humidity
52535;BME280;38443;53.164;5.802;2023-06-14T00:00:03;101867.84;;;15.41;93.25
52535;BME280;38443;53.164;5.802;2023-06-14T00:02:29;101868.84;;;15.38;93.75
52535;BME280;38443;53.164;5.802;2023-06-14T00:04:54;101868.03;;;15.34;94.24
52535;BME280;38443;53.164;5.802;2023-06-14T00:07:33;101868.13;;;15.31;96.53
52535;BME280;38443;53.164;5.802;2023-06-14T00:09:59;101871.81;;;15.29;95.13
52535;BME280;38443;53.164;5.802;2023-06-14T00:12:24;101875.47;;;15.28;95.12
52535;BME280;38443;53.164;5.802;2023-06-14T00:14:49;101870.94;;;15.28;95.86
52535;BME280;38443;53.164;5.802;2023-06-14T00:17:15;101874.56;;;15.27;95.36
52535;BME280;38443;53.164;5.802;2023-06-14T00:19:42;101873.84;;;15.22;96.02
52535;BME280;38443;53.164;5.802;2023-06-14T00:22:07;101877.63;;;15.16;96.36
52535;BME280;38443;53.164;5.802;2023-06-14T00:24:32;101874.19;;;15.11;97.24
52535;BME280;38443;53.164;5.802;2023-06-14T00:26:58;101872.47;;;15.09;97.69
52535;BME280;38443;53.164;5.802;2023-06-14T00:29:23;101876.19;;;15.05;98.61
52535;BME280;38443;53.164;5.802;2023-06-14T00:31:48;101874.50;;;15.01;99.02
52535;BME280;38443;53.164;5.802;2023-06-14T00:34:14;101876.50;;;14.95;99.44
52535;BME280;38443;53.164;5.802;2023-06-14T00:36:39;101881.09;;;14.92;99.80
52535;BME280;38443;53.164;5.802;2023-06-14T00:39:04;101877.56;;;14.90;100.00
52535;BME280;38443;53.164;5.802;2023-06-14T00:41:30;101882.13;;;14.88;100.00
52535;BME280;38443;53.164;5.802;2023-06-14T00:43:55;101872.41;;;14.82;100.00
52535;BME280;38443;53.164;5.802;2023-06-14T00:46:22;101881.47;;;14.80;100.00
52535;BME280;38443;53.164;5.802;2023-06-14T00:48:47;101885.13;;;14.77;100.00
52535;BME280;38443;53.164;5.802;2023-06-14T00:51:13;101884.38;;;14.72;100.00
52535;BME280;38443;53.164;5.802;2023-06-14T00:53:39;101879.06;;;14.69;100.00
52535;BME280;38443;53.164;5.802;2023-06-14T00:56:06;101878.34;;;14.64;100.00
52535;BME280;38443;53.164;5.802;2023-06-14T00:58:32;101882.06;;;14.60;100.00
52535;BME280;38443;53.164;5.802;2023-06-14T01:00:57;101883.00;;;14.57;100.00
52535;BME280;38443;53.164;5.802;2023-06-14T01:03:23;101883.13;;;14.52;100.00
52535;BME280;38443;53.164;5.802;2023-06-14T01:06:19;101880.59;;;14.46;100.00
52535;BME280;38443;53.164;5.802;2023-06-14T01:09:10;101876.25;;;14.42;100.00
52535;BME280;38443;53.164;5.802;2023-06-14T01:14:28;101874.59;;;14.36;100.00
52535;BME280;38443;53.164;5.802;2023-06-14T01:16:56;101885.41;;;14.35;100.00
52535;BME280;38443;53.164;5.802;2023-06-14T01:19:23;101883.72;;;14.31;100.00
52535;BME280;38443;53.164;5.802;2023-06-14T01:21:50;101878.47;;;14.26;100.00
52535;BME280;38443;53.164;5.802;2023-06-14T01:24:16;101883.03;;;14.24;100.00
52535;BME280;38443;53.164;5.802;2023-06-14T01:26:45;101880.38;;;14.23;100.00
52535;BME280;38443;53.164;5.802;2023-06-14T01:29:12;101884.94;;;14.19;100.00
52535;BME280;38443;53.164;5.802;2023-06-14T01:31:42;101885.13;;;14.13;100.00
52535;BME280;38443;53.164;5.802;2023-06-14T01:34:08;101884.25;;;14.12;100.00
52535;BME280;38443;53.164;5.802;2023-06-14T01:36:35;101890.59;;;14.10;100.00
52535;BME280;38443;53.164;5.802;2023-06-14T01:39:01;101887.03;;;14.09;100.00
52535;BME280;38443;53.164;5.802;2023-06-14T01:41:28;101893.38;;;14.07;100.00
52535;BME280;38443;53.164;5.802;2023-06-14T01:43:55;101892.59;;;14.03;100.00
52535;BME280;38443;53.164;5.802;2023-06-14T01:46:22;101891.75;;;14.01;100.00
52535;BME280;38443;53.164;5.802;2023-06-14T01:48:48;101892.69;;;13.99;100.00
52535;BME280;38443;53.164;5.802;2023-06-14T01:51:14;101899.97;;;13.95;100.00
52535;BME280;38443;53.164;5.802;2023-06-14T01:53:39;101892.88;;;13.91;100.00
52535;BME280;38443;53.164;5.802;2023-06-14T01:56:05;101896.56;;;13.88;100.00
52535;BME280;38443;53.164;5.802;2023-06-14T01:58:31;101898.38;;;13.88;100.00
52535;BME280;38443;53.164;5.802;2023-06-14T02:00:57;101897.59;;;13.83;100.00
52535;BME280;38443;53.164;5.802;2023-06-14T02:03:23;101895.00;;;13.80;100.00
52535;BME280;38443;53.164;5.802;2023-06-14T02:05:49;101889.66;;;13.78;100.00
52535;BME280;38443;53.164;5.802;2023-06-14T02:08:15;101887.94;;;13.75;100.00
52535;BME280;38443;53.164;5.802;2023-06-14T02:10:40;101904.09;;;13.74;100.00
52535;BME280;38443;53.164;5.802;2023-06-14T02:13:05;101890.69;;;13.72;100.00
52535;BME280;38443;53.164;5.802;2023-06-14T02:15:31;101894.41;;;13.67;100.00
52535;BME280;38443;53.164;5.802;2023-06-14T02:18:01;101889.16;;;13.62;100.00
52535;BME280;38443;53.164;5.802;2023-06-14T02:20:28;101886.59;;;13.57;100.00
52535;BME280;38443;53.164;5.802;2023-06-14T02:22:54;101887.59;;;13.53;100.00
52535;BME280;38443;53.164;5.802;2023-06-14T02:25:19;101886.75;;;13.51;100.00
52535;BME280;38443;53.164;5.802;2023-06-14T02:27:45;101895.75;;;13.49;100.00
52535;BME280;38443;53.164;5.802;2023-06-14T02:30:10;101886.91;;;13.45;100.00
52535;BME280;38443;53.164;5.802;2023-06-14T02:32:36;101895.00;;;13.44;100.00
52535;BME280;38443;53.164;5.802;2023-06-14T02:35:02;101893.31;;;13.40;100.00
52535;BME280;38443;53.164;5.802;2023-06-14T02:37:27;101888.91;;;13.37;100.00
52535;BME280;38443;53.164;5.802;2023-06-14T02:39:52;101888.03;;;13.35;100.00
52535;BME280;38443;53.164;5.802;2023-06-14T02:42:18;101894.34;;;13.32;100.00
52535;BME280;38443;53.164;5.802;2023-06-14T02:44:43;101888.13;;;13.30;100.00
52535;BME280;38443;53.164;5.802;2023-06-14T02:47:10;101889.06;;;13.28;100.00
52535;BME280;38443;53.164;5.802;2023-06-14T02:49:35;101887.41;;;13.22;100.00
52535;BME280;38443;53.164;5.802;2023-06-14T02:52:00;101898.25;;;13.19;100.00
52535;BME280;38443;53.164;5.802;2023-06-14T02:54:26;101895.59;;;13.17;100.00
52535;BME280;38443;53.164;5.802;2023-06-14T02:56:51;101901.00;;;13.16;100.00
52535;BME280;38443;53.164;5.802;2023-06-14T02:59:16;101895.63;;;13.16;100.00
52535;BME280;38443;53.164;5.802;2023-06-14T03:01:42;101900.16;;;13.12;100.00
52535;BME280;38443;53.164;5.802;2023-06-14T03:04:08;101908.22;;;13.12;100.00
52535;BME280;38443;53.164;5.802;2023-06-14T03:06:33;101909.19;;;13.10;100.00
52535;BME280;38443;53.164;5.802;2023-06-14T03:09:00;101905.66;;;13.08;100.00
52535;BME280;38443;53.164;5.802;2023-06-14T03:11:26;101903.94;;;13.05;100.00
52535;BME280;38443;53.164;5.802;2023-06-14T03:13:52;101904.88;;;13.03;100.00
52535;BME280;38443;53.164;5.802;2023-06-14T03:16:18;101904.94;;;13.01;100.00
52535;BME280;38443;53.164;5.802;2023-06-14T03:18:50;101911.19;;;13.00;100.00
52535;BME280;38443;53.164;5.802;2023-06-14T03:21:16;101911.22;;;12.98;100.00
52535;BME280;38443;53.164;5.802;2023-06-14T03:23:42;101910.38;;;12.96;100.00
52535;BME280;38443;53.164;5.802;2023-06-14T03:26:08;101916.72;;;12.94;100.00
52535;BME280;38443;53.164;5.802;2023-06-14T03:28:33;101910.47;;;12.93;100.00
52535;BME280;38443;53.164;5.802;2023-06-14T03:30:59;101923.03;;;12.93;100.00
52535;BME280;38443;53.164;5.802;2023-06-14T03:33:24;101922.13;;;12.92;100.00
52535;BME280;38443;53.164;5.802;2023-06-14T03:35:50;101931.97;;;12.93;100.00
52535;BME280;38443;53.164;5.802;2023-06-14T03:38:16;101916.75;;;12.92;100.00
52535;BME280;38443;53.164;5.802;2023-06-14T03:40:41;101923.06;;;12.91;100.00
52535;BME280;38443;53.164;5.802;2023-06-14T03:43:07;101923.94;;;12.92;100.00
52535;BME280;38443;53.164;5.802;2023-06-14T03:45:32;101922.13;;;12.92;100.00
52535;BME280;38443;53.164;5.802;2023-06-14T03:47:57;101923.91;;;12.93;100.00
52535;BME280;38443;53.164;5.802;2023-06-14T03:50:23;101925.72;;;12.93;100.00
52535;BME280;38443;53.164;5.802;2023-06-14T03:52:48;101926.59;;;12.93;100.00
52535;BME280;38443;53.164;5.802;2023-06-14T03:55:15;101929.28;;;12.93;100.00
52535;BME280;38443;53.164;5.802;2023-06-14T03:57:41;101933.72;;;12.94;100.00
52535;BME280;38443;53.164;5.802;2023-06-14T04:00:08;101936.41;;;12.94;100.00
52535;BME280;38443;53.164;5.802;2023-06-14T04:02:34;101944.47;;;12.94;100.00
52535;BME280;38443;53.164;5.802;2023-06-14T04:04:59;101948.00;;;12.96;100.00
52535;BME280;38443;53.164;5.802;2023-06-14T04:07:25;101947.09;;;12.97;100.00
52535;BME280;38443;53.164;5.802;2023-06-14T04:09:53;101952.44;;;12.99;100.00
52535;BME280;38443;53.164;5.802;2023-06-14T04:12:19;101951.50;;;13.00;100.00
52535;BME280;38443;53.164;5.802;2023-06-14T04:14:44;101954.19;;;13.00;100.00
52535;BME280;38443;53.164;5.802;2023-06-14T04:17:09;101957.75;;;13.02;100.00
52535;BME280;38443;53.164;5.802;2023-06-14T04:19:35;101965.75;;;13.05;100.00
52535;BME280;38443;53.164;5.802;2023-06-14T04:22:01;101967.50;;;13.06;100.00
52535;BME280;38443;53.164;5.802;2023-06-14T04:24:27;101971.91;;;13.09;100.00
52535;BME280;38443;53.164;5.802;2023-06-14T04:26:58;101970.09;;;13.11;100.00
52535;BME280;38443;53.164;5.802;2023-06-14T04:29:24;101978.09;;;13.14;100.00
52535;BME280;38443;53.164;5.802;2023-06-14T04:31:53;101962.81;;;13.16;100.00
52535;BME280;38443;53.164;5.802;2023-06-14T04:34:18;101966.34;;;13.20;100.00
52535;BME280;38443;53.164;5.802;2023-06-14T04:36:44;101967.16;;;13.23;100.00
52535;BME280;38443;53.164;5.802;2023-06-14T04:39:19;101973.31;;;13.27;100.00
52535;BME280;38443;53.164;5.802;2023-06-14T04:41:44;101976.88;;;13.30;100.00
52535;BME280;38443;53.164;5.802;2023-06-14T04:44:10;101979.50;;;13.33;100.00
52535;BME280;38443;53.164;5.802;2023-06-14T04:46:36;101982.97;;;13.39;100.00
52535;BME280;38443;53.164;5.802;2023-06-14T04:49:17;101975.72;;;13.42;100.00
52535;BME280;38443;53.164;5.802;2023-06-14T04:51:43;101984.59;;;13.46;100.00
52535;BME280;38443;53.164;5.802;2023-06-14T04:54:09;101977.34;;;13.49;100.00
52535;BME280;38443;53.164;5.802;2023-06-14T04:56:38;101982.63;;;13.54;100.00
52535;BME280;38443;53.164;5.802;2023-06-14T04:59:03;101987.00;;;13.58;100.00
52535;BME280;38443;53.164;5.802;2023-06-14T05:01:32;101988.66;;;13.64;100.00
52535;BME280;38443;53.164;5.802;2023-06-14T05:03:58;101991.22;;;13.70;100.00
52535;BME280;38443;53.164;5.802;2023-06-14T05:06:24;101990.13;;;13.77;100.00
52535;BME280;38443;53.164;5.802;2023-06-14T05:08:49;101981.03;;;13.83;100.00
52535;BME280;38443;53.164;5.802;2023-06-14T05:11:15;101987.16;;;13.89;100.00
52535;BME280;38443;53.164;5.802;2023-06-14T05:13:42;101993.25;;;13.96;100.00
52535;BME280;38443;53.164;5.802;2023-06-14T05:16:08;101994.88;;;14.03;100.00
52535;BME280;38443;53.164;5.802;2023-06-14T05:18:34;101999.19;;;14.10;100.00
52535;BME280;38443;53.164;5.802;2023-06-14T05:21:00;102000.81;;;14.18;100.00
52535;BME280;38443;53.164;5.802;2023-06-14T05:23:26;101996.13;;;14.24;100.00
52535;BME280;38443;53.164;5.802;2023-06-14T05:25:51;101995.94;;;14.32;100.00
52535;BME280;38443;53.164;5.802;2023-06-14T05:28:16;101991.25;;;14.39;100.00
52535;BME280;38443;53.164;5.802;2023-06-14T05:30:42;101990.22;;;14.44;100.00
52535;BME280;38443;53.164;5.802;2023-06-14T05:33:07;101996.41;;;14.48;100.00
52535;BME280;38443;53.164;5.802;2023-06-14T05:35:33;101993.59;;;14.52;100.00
52535;BME280;38443;53.164;5.802;2023-06-14T05:37:58;101998.88;;;14.57;100.00
52535;BME280;38443;53.164;5.802;2023-06-14T05:40:24;101997.84;;;14.61;100.00
52535;BME280;38443;53.164;5.802;2023-06-14T05:42:49;102000.47;;;14.64;100.00
52535;BME280;38443;53.164;5.802;2023-06-14T05:45:14;102014.72;;;14.69;100.00
52535;BME280;38443;53.164;5.802;2023-06-14T05:47:43;102004.72;;;14.73;100.00
52535;BME280;38443;53.164;5.802;2023-06-14T05:50:09;102007.34;;;14.76;100.00
52535;BME280;38443;53.164;5.802;2023-06-14T05:52:34;102009.00;;;14.82;100.00
52535;BME280;38443;53.164;5.802;2023-06-14T05:55:00;102013.22;;;14.90;100.00
52535;BME280;38443;53.164;5.802;2023-06-14T05:57:26;102003.13;;;14.97;100.00
52535;BME280;38443;53.164;5.802;2023-06-14T05:59:51;101999.34;;;15.04;100.00
52535;BME280;38443;53.164;5.802;2023-06-14T06:02:17;102000.88;;;15.13;100.00
52535;BME280;38443;53.164;5.802;2023-06-14T06:04:42;102007.00;;;15.20;100.00
52535;BME280;38443;53.164;5.802;2023-06-14T06:07:08;102013.03;;;15.28;100.00
52535;BME280;38443;53.164;5.802;2023-06-14T06:09:33;102004.63;;;15.37;100.00
52535;BME280;38443;53.164;5.802;2023-06-14T06:11:59;102005.22;;;15.48;100.00
52535;BME280;38443;53.164;5.802;2023-06-14T06:14:24;102006.78;;;15.55;100.00
52535;BME280;38443;53.164;5.802;2023-06-14T06:16:50;102010.06;;;15.65;100.00
52535;BME280;38443;53.164;5.802;2023-06-14T06:19:17;102010.75;;;15.72;100.00
52535;BME280;38443;53.164;5.802;2023-06-14T06:21:43;102015.13;;;15.78;100.00
52535;BME280;38443;53.164;5.802;2023-06-14T06:24:08;102021.09;;;15.87;100.00
52535;BME280;38443;53.164;5.802;2023-06-14T06:26:33;102019.97;;;15.94;100.00
52535;BME280;38443;53.164;5.802;2023-06-14T06:28:59;102020.53;;;16.04;100.00
52535;BME280;38443;53.164;5.802;2023-06-14T06:31:24;102017.94;;;16.28;100.00
52535;BME280;38443;53.164;5.802;2023-06-14T06:33:52;102014.66;;;17.20;100.00
52535;BME280;38443;53.164;5.802;2023-06-14T06:36:19;102017.44;;;18.30;100.00
52535;BME280;38443;53.164;5.802;2023-06-14T06:38:45;102007.56;;;19.10;100.00
52535;BME280;38443;53.164;5.802;2023-06-14T06:41:10;102008.47;;;19.67;100.00
52535;BME280;38443;53.164;5.802;2023-06-14T06:43:35;102010.53;;;20.18;100.00
52535;BME280;38443;53.164;5.802;2023-06-14T06:46:01;102013.66;;;20.62;100.00
52535;BME280;38443;53.164;5.802;2023-06-14T06:48:26;102012.91;;;20.94;100.00
52535;BME280;38443;53.164;5.802;2023-06-14T06:50:51;102017.47;;;21.26;100.00
52535;BME280;38443;53.164;5.802;2023-06-14T06:53:17;102015.81;;;21.40;100.00
52535;BME280;38443;53.164;5.802;2023-06-14T06:55:44;102014.38;;;21.66;99.17
52535;BME280;38443;53.164;5.802;2023-06-14T06:58:09;102015.94;;;21.86;98.64
52535;BME280;38443;53.164;5.802;2023-06-14T07:00:35;102020.84;;;22.11;93.33
52535;BME280;38443;53.164;5.802;2023-06-14T07:03:00;102024.66;;;22.23;91.03
52535;BME280;38443;53.164;5.802;2023-06-14T07:05:26;102023.63;;;22.41;86.51
52535;BME280;38443;53.164;5.802;2023-06-14T07:07:51;102032.66;;;22.72;87.29
52535;BME280;38443;53.164;5.802;2023-06-14T07:10:17;102031.53;;;23.05;85.24
52535;BME280;38443;53.164;5.802;2023-06-14T07:12:42;102032.34;;;23.21;79.67
52535;BME280;38443;53.164;5.802;2023-06-14T07:15:07;102038.47;;;23.39;78.78
52535;BME280;38443;53.164;5.802;2023-06-14T07:17:34;102038.69;;;23.36;77.14
52535;BME280;38443;53.164;5.802;2023-06-14T07:19:59;102039.25;;;23.56;75.80
52535;BME280;38443;53.164;5.802;2023-06-14T07:22:26;102035.34;;;23.60;74.45
52535;BME280;38443;53.164;5.802;2023-06-14T07:24:51;102032.09;;;23.67;72.48
52535;BME280;38443;53.164;5.802;2023-06-14T07:27:16;102030.69;;;23.75;70.81
52535;BME280;38443;53.164;5.802;2023-06-14T07:29:42;102035.56;;;23.98;69.74
52535;BME280;38443;53.164;5.802;2023-06-14T07:32:07;102029.41;;;23.95;65.84
52535;BME280;38443;53.164;5.802;2023-06-14T07:34:33;102024.72;;;23.97;66.40
52535;BME280;38443;53.164;5.802;2023-06-14T07:36:58;102033.75;;;24.12;66.06
52535;BME280;38443;53.164;5.802;2023-06-14T07:39:23;102024.91;;;24.21;65.29
52535;BME280;38443;53.164;5.802;2023-06-14T07:41:49;102024.91;;;24.21;63.10
52535;BME280;38443;53.164;5.802;2023-06-14T07:44:14;102030.00;;;24.40;62.74
52535;BME280;38443;53.164;5.802;2023-06-14T07:46:41;102020.66;;;24.57;60.61
52535;BME280;38443;53.164;5.802;2023-06-14T07:49:06;102036.75;;;24.61;60.01
52535;BME280;38443;53.164;5.802;2023-06-14T07:51:32;102033.22;;;24.59;59.59
52535;BME280;38443;53.164;5.802;2023-06-14T07:53:59;102034.34;;;24.57;58.40
52535;BME280;38443;53.164;5.802;2023-06-14T07:56:26;102040.63;;;24.44;58.58
52535;BME280;38443;53.164;5.802;2023-06-14T07:58:51;102036.31;;;24.55;58.69
52535;BME280;38443;53.164;5.802;2023-06-14T08:01:17;102043.47;;;24.70;58.23
52535;BME280;38443;53.164;5.802;2023-06-14T08:03:42;102033.81;;;24.77;56.86
52535;BME280;38443;53.164;5.802;2023-06-14T08:06:08;102033.38;;;24.71;55.62
52535;BME280;38443;53.164;5.802;2023-06-14T08:08:33;102032.97;;;24.49;54.06
52535;BME280;38443;53.164;5.802;2023-06-14T08:10:58;102043.91;;;24.49;55.84
52535;BME280;38443;53.164;5.802;2023-06-14T08:13:24;102042.34;;;24.60;55.63
52535;BME280;38443;53.164;5.802;2023-06-14T08:15:49;102044.56;;;24.80;55.84
52535;BME280;38443;53.164;5.802;2023-06-14T08:18:15;102039.81;;;24.69;54.34
52535;BME280;38443;53.164;5.802;2023-06-14T08:20:40;102044.31;;;24.58;53.92
52535;BME280;38443;53.164;5.802;2023-06-14T08:23:06;102041.16;;;24.77;53.12
52535;BME280;38443;53.164;5.802;2023-06-14T08:25:32;102046.09;;;24.84;53.06
52535;BME280;38443;53.164;5.802;2023-06-14T08:28:00;102046.19;;;24.83;53.13
52535;BME280;38443;53.164;5.802;2023-06-14T08:30:26;102039.97;;;25.06;53.17
52535;BME280;38443;53.164;5.802;2023-06-14T08:32:51;102039.84;;;25.08;52.31
52535;BME280;38443;53.164;5.802;2023-06-14T08:35:17;102041.38;;;25.12;51.51
52535;BME280;38443;53.164;5.802;2023-06-14T08:37:43;102029.22;;;25.03;51.60
52535;BME280;38443;53.164;5.802;2023-06-14T08:40:21;102035.03;;;24.86;50.02
52535;BME280;38443;53.164;5.802;2023-06-14T08:42:50;102039.19;;;24.92;51.69
52535;BME280;38443;53.164;5.802;2023-06-14T08:45:15;102029.88;;;24.94;51.46
52535;BME280;38443;53.164;5.802;2023-06-14T08:47:41;102033.16;;;24.86;51.10
52535;BME280;38443;53.164;5.802;2023-06-14T08:50:07;102035.47;;;24.93;50.73
52535;BME280;38443;53.164;5.802;2023-06-14T08:52:37;102036.34;;;24.80;49.84
52535;BME280;38443;53.164;5.802;2023-06-14T08:55:11;102034.47;;;24.81;51.30
52535;BME280;38443;53.164;5.802;2023-06-14T08:57:36;102029.88;;;24.81;51.03
52535;BME280;38443;53.164;5.802;2023-06-14T09:00:03;102035.25;;;24.83;50.78
52535;BME280;38443;53.164;5.802;2023-06-14T09:02:37;102021.75;;;24.54;49.95
52535;BME280;38443;53.164;5.802;2023-06-14T09:05:03;102040.81;;;24.41;51.35
52535;BME280;38443;53.164;5.802;2023-06-14T09:07:29;102036.53;;;24.64;51.14
52535;BME280;38443;53.164;5.802;2023-06-14T09:10:11;102043.25;;;24.86;50.49
52535;BME280;38443;53.164;5.802;2023-06-14T09:12:37;102051.00;;;24.79;50.07
52535;BME280;38443;53.164;5.802;2023-06-14T09:15:04;102044.13;;;24.74;50.14
52535;BME280;38443;53.164;5.802;2023-06-14T09:17:40;102039.63;;;24.73;49.04
52535;BME280;38443;53.164;5.802;2023-06-14T09:20:07;102045.31;;;24.82;49.95
52535;BME280;38443;53.164;5.802;2023-06-14T09:22:42;102041.34;;;24.61;49.50
52535;BME280;38443;53.164;5.802;2023-06-14T09:25:08;102037.50;;;24.51;49.95
52535;BME280;38443;53.164;5.802;2023-06-14T09:27:33;102049.38;;;24.64;50.58
52535;BME280;38443;53.164;5.802;2023-06-14T09:29:59;102047.63;;;24.76;50.02
52535;BME280;38443;53.164;5.802;2023-06-14T09:32:25;102052.22;;;24.75;49.75
52535;BME280;38443;53.164;5.802;2023-06-14T09:34:50;102047.50;;;24.77;49.44
52535;BME280;38443;53.164;5.802;2023-06-14T09:37:30;102050.56;;;24.85;48.35
52535;BME280;38443;53.164;5.802;2023-06-14T09:39:56;102050.00;;;24.67;48.67
52535;BME280;38443;53.164;5.802;2023-06-14T09:42:22;102048.50;;;24.49;48.85
52535;BME280;38443;53.164;5.802;2023-06-14T09:44:51;102048.84;;;24.44;48.97
52535;BME280;38443;53.164;5.802;2023-06-14T09:47:17;102051.31;;;24.35;49.28
52535;BME280;38443;53.164;5.802;2023-06-14T09:49:43;102046.00;;;24.46;49.81
52535;BME280;38443;53.164;5.802;2023-06-14T09:52:12;102037.50;;;24.23;49.66
52535;BME280;38443;53.164;5.802;2023-06-14T09:54:41;102049.44;;;24.22;50.24
52535;BME280;38443;53.164;5.802;2023-06-14T09:57:12;102037.91;;;24.17;50.31
52535;BME280;38443;53.164;5.802;2023-06-14T09:59:43;102048.34;;;24.25;49.81
52535;BME280;38443;53.164;5.802;2023-06-14T10:02:14;102042.94;;;24.38;49.55
52535;BME280;38443;53.164;5.802;2023-06-14T10:04:46;102050.81;;;24.42;49.47
52535;BME280;38443;53.164;5.802;2023-06-14T10:07:19;102036.97;;;24.31;48.27
52535;BME280;38443;53.164;5.802;2023-06-14T10:09:45;102046.94;;;24.32;48.96
52535;BME280;38443;53.164;5.802;2023-06-14T10:12:16;102039.00;;;24.42;48.61
52535;BME280;38443;53.164;5.802;2023-06-14T10:14:48;102043.28;;;24.46;48.73
52535;BME280;38443;53.164;5.802;2023-06-14T10:17:22;102041.00;;;24.53;47.57
52535;BME280;38443;53.164;5.802;2023-06-14T10:20:03;102028.91;;;24.42;48.67
52535;BME280;38443;53.164;5.802;2023-06-14T10:22:40;102044.41;;;24.29;46.41
52535;BME280;38443;53.164;5.802;2023-06-14T10:25:12;102040.00;;;24.14;47.54
52535;BME280;38443;53.164;5.802;2023-06-14T10:27:38;102042.84;;;24.12;47.34
52535;BME280;38443;53.164;5.802;2023-06-14T10:30:05;102037.91;;;24.17;47.75
52535;BME280;38443;53.164;5.802;2023-06-14T10:32:32;102034.53;;;24.14;46.77
52535;BME280;38443;53.164;5.802;2023-06-14T10:35:05;102038.50;;;24.35;47.65
52535;BME280;38443;53.164;5.802;2023-06-14T10:37:31;102032.97;;;24.49;47.52
52535;BME280;38443;53.164;5.802;2023-06-14T10:39:56;102033.19;;;24.46;47.23
52535;BME280;38443;53.164;5.802;2023-06-14T10:42:22;102042.97;;;24.51;47.21
52535;BME280;38443;53.164;5.802;2023-06-14T10:44:57;102038.44;;;24.49;47.32
52535;BME280;38443;53.164;5.802;2023-06-14T10:47:29;102039.50;;;24.34;47.20
52535;BME280;38443;53.164;5.802;2023-06-14T10:50:07;102035.50;;;24.13;45.69
52535;BME280;38443;53.164;5.802;2023-06-14T10:52:41;102030.63;;;24.03;45.77
52535;BME280;38443;53.164;5.802;2023-06-14T10:55:11;102038.06;;;24.01;47.16
52535;BME280;38443;53.164;5.802;2023-06-14T10:57:44;102039.50;;;24.07;48.08
52535;BME280;38443;53.164;5.802;2023-06-14T11:00:16;102042.69;;;24.28;48.39
52535;BME280;38443;53.164;5.802;2023-06-14T11:03:03;102036.88;;;24.33;49.26
52535;BME280;38443;53.164;5.802;2023-06-14T11:11:16;102025.59;;;24.52;49.75
52535;BME280;38443;53.164;5.802;2023-06-14T11:13:44;102021.06;;;24.51;48.36
52535;BME280;38443;53.164;5.802;2023-06-14T11:16:15;102031.16;;;24.50;48.64
52535;BME280;38443;53.164;5.802;2023-06-14T11:18:40;102036.63;;;24.50;48.34
52535;BME280;38443;53.164;5.802;2023-06-14T11:21:06;102028.97;;;24.55;48.71
52535;BME280;38443;53.164;5.802;2023-06-14T11:23:31;102027.88;;;24.58;48.44
52535;BME280;38443;53.164;5.802;2023-06-14T11:25:56;102030.09;;;24.78;48.87
52535;BME280;38443;53.164;5.802;2023-06-14T11:28:22;102038.31;;;24.91;48.85
52535;BME280;38443;53.164;5.802;2023-06-14T11:30:49;102021.78;;;24.93;49.00
52535;BME280;38443;53.164;5.802;2023-06-14T11:33:24;102018.03;;;24.81;48.98
52535;BME280;38443;53.164;5.802;2023-06-14T11:35:51;102030.75;;;24.82;48.88
52535;BME280;38443;53.164;5.802;2023-06-14T11:38:16;102013.53;;;24.67;48.79
52535;BME280;38443;53.164;5.802;2023-06-14T11:40:41;102003.78;;;24.63;48.84
52535;BME280;38443;53.164;5.802;2023-06-14T11:43:07;102008.16;;;24.65;48.46
52535;BME280;38443;53.164;5.802;2023-06-14T11:45:32;102005.53;;;24.51;47.69
52535;BME280;38443;53.164;5.802;2023-06-14T11:47:58;102020.44;;;24.60;48.30
52535;BME280;38443;53.164;5.802;2023-06-14T11:50:25;102010.16;;;24.76;48.48
52535;BME280;38443;53.164;5.802;2023-06-14T11:55:19;102009.28;;;24.88;48.21
52535;BME280;38443;53.164;5.802;2023-06-14T11:57:46;102011.56;;;25.07;48.34
52535;BME280;38443;53.164;5.802;2023-06-14T12:00:12;102010.94;;;24.78;47.09
52535;BME280;38443;53.164;5.802;2023-06-14T12:02:38;102020.00;;;24.79;47.84
52535;BME280;38443;53.164;5.802;2023-06-14T12:05:06;102009.50;;;24.73;47.93
52535;BME280;38443;53.164;5.802;2023-06-14T12:07:38;102009.50;;;24.60;48.79
52535;BME280;38443;53.164;5.802;2023-06-14T12:10:06;102019.09;;;24.53;49.31
52535;BME280;38443;53.164;5.802;2023-06-14T12:12:38;102009.94;;;24.54;48.74
52535;BME280;38443;53.164;5.802;2023-06-14T12:15:05;102007.63;;;24.73;48.40
52535;BME280;38443;53.164;5.802;2023-06-14T12:17:38;102003.91;;;24.74;48.44
52535;BME280;38443;53.164;5.802;2023-06-14T12:20:08;102010.25;;;24.87;48.27
52535;BME280;38443;53.164;5.802;2023-06-14T12:22:54;102009.72;;;24.82;48.29
52535;BME280;38443;53.164;5.802;2023-06-14T12:25:34;102005.88;;;24.85;47.11
52535;BME280;38443;53.164;5.802;2023-06-14T12:28:09;102014.09;;;24.85;48.42
52535;BME280;38443;53.164;5.802;2023-06-14T12:30:36;102003.25;;;24.83;47.93
52535;BME280;38443;53.164;5.802;2023-06-14T12:33:03;102024.81;;;24.75;47.74
52535;BME280;38443;53.164;5.802;2023-06-14T12:35:28;102003.69;;;24.90;47.31
52535;BME280;38443;53.164;5.802;2023-06-14T12:37:58;102004.56;;;24.91;47.77
52535;BME280;38443;53.164;5.802;2023-06-14T12:40:24;102009.03;;;24.92;48.15
52535;BME280;38443;53.164;5.802;2023-06-14T12:42:49;102010.81;;;24.93;47.55
52535;BME280;38443;53.164;5.802;2023-06-14T12:45:15;102006.13;;;24.82;48.00
52535;BME280;38443;53.164;5.802;2023-06-14T12:47:40;102004.22;;;24.69;47.84
52535;BME280;38443;53.164;5.802;2023-06-14T12:50:06;102014.75;;;24.88;48.38
52535;BME280;38443;53.164;5.802;2023-06-14T12:52:32;102002.72;;;25.04;47.81
52535;BME280;38443;53.164;5.802;2023-06-14T12:55:04;102000.25;;;25.38;47.48